createdAt,value
2017-12-27T00:02:31.153Z,12.30
2017-12-27T00:05:04.159Z,12.80
2017-12-27T00:07:37.289Z,11.88
2017-12-27T00:10:10.508Z,12.50
2017-12-27T00:12:43.548Z,11.88
2017-12-27T00:15:16.664Z,11.85
2017-12-27T00:17:49.830Z,12.18
2017-12-27T00:20:22.858Z,12.85
2017-12-27T00:22:55.997Z,12.50
2017-12-27T00:25:29.132Z,11.73
2017-12-27T00:28:02.212Z,12.80
2017-12-27T00:30:35.283Z,13.43
2017-12-27T00:33:02.741Z,13.40
2017-12-27T00:35:30.200Z,12.73
2017-12-27T00:37:57.676Z,11.70
2017-12-27T00:40:25.150Z,12.50
2017-12-27T00:42:52.609Z,12.93
2017-12-27T00:45:20.099Z,13.52
2017-12-27T00:47:47.579Z,12.82
2017-12-27T00:50:15.055Z,12.35
2017-12-27T00:52:42.547Z,12.10
2017-12-27T00:55:10.023Z,12.15
2017-12-27T00:57:37.496Z,12.88
2017-12-27T01:00:04.979Z,12.75
2017-12-27T01:02:32.436Z,11.70
2017-12-27T01:04:59.907Z,13.15
2017-12-27T01:07:27.395Z,12.52
2017-12-27T01:09:54.852Z,14.02
2017-12-27T01:12:22.313Z,13.20
2017-12-27T01:14:49.803Z,13.50
2017-12-27T01:17:17.278Z,12.75
2017-12-27T01:19:44.733Z,12.20
2017-12-27T01:22:12.235Z,12.52
2017-12-27T01:24:39.703Z,13.70
2017-12-27T01:27:07.459Z,14.80
2017-12-27T01:29:34.961Z,14.13
2017-12-27T01:32:02.421Z,13.25
2017-12-27T01:34:29.888Z,14.18
2017-12-27T01:36:57.380Z,13.70
2017-12-27T01:39:24.836Z,14.00
2017-12-27T01:41:52.288Z,13.50
2017-12-27T01:44:19.761Z,13.52
2017-12-27T01:46:47.216Z,13.10
2017-12-27T01:49:14.692Z,13.45
2017-12-27T01:51:42.175Z,13.20
2017-12-27T01:54:09.645Z,12.65
2017-12-27T01:56:37.362Z,12.27
2017-12-27T01:59:04.850Z,11.90
2017-12-27T02:01:33.160Z,11.80
2017-12-27T02:04:00.625Z,13.30
2017-12-27T02:06:29.112Z,11.18
2017-12-27T02:08:56.788Z,12.15
2017-12-27T02:11:24.363Z,11.15
2017-12-27T02:13:52.789Z,10.88
2017-12-27T02:16:20.320Z,11.30
2017-12-27T02:18:47.804Z,11.95
2017-12-27T02:21:15.286Z,11.77
2017-12-27T02:23:42.762Z,11.50
2017-12-27T02:26:10.239Z,11.12
2017-12-27T02:28:37.736Z,11.50
2017-12-27T02:31:05.212Z,9.90
2017-12-27T02:33:32.668Z,10.23
2017-12-27T02:36:00.163Z,10.50
2017-12-27T02:38:39.228Z,10.68
2017-12-27T02:41:06.698Z,9.70
2017-12-27T02:43:34.149Z,9.95
2017-12-27T02:46:01.614Z,9.18
2017-12-27T02:48:29.130Z,9.60
2017-12-27T02:50:56.603Z,9.40
2017-12-27T02:53:24.058Z,9.70
2017-12-27T02:55:51.543Z,9.20
2017-12-27T02:58:19.021Z,8.93
2017-12-27T03:00:46.497Z,8.20
2017-12-27T03:03:13.964Z,8.98
2017-12-27T03:05:41.432Z,8.63
2017-12-27T03:08:08.903Z,9.10
2017-12-27T03:10:36.386Z,8.85
2017-12-27T03:13:03.851Z,8.98
2017-12-27T03:15:31.331Z,8.02
2017-12-27T03:17:58.796Z,8.48
2017-12-27T03:20:26.259Z,8.18
2017-12-27T03:22:53.718Z,8.20
2017-12-27T03:25:21.194Z,7.85
2017-12-27T03:27:48.640Z,8.30
2017-12-27T03:30:16.093Z,7.75
2017-12-27T03:32:43.563Z,8.27
2017-12-27T03:35:11.035Z,7.72
2017-12-27T03:37:38.489Z,7.80
2017-12-27T03:40:05.955Z,7.57
2017-12-27T03:42:33.408Z,7.80
2017-12-27T03:45:00.874Z,7.43
2017-12-27T03:47:28.336Z,7.80
2017-12-27T03:49:55.794Z,8.05
2017-12-27T03:52:23.250Z,8.35
2017-12-27T03:54:50.721Z,6.60
2017-12-27T03:57:18.172Z,7.78
2017-12-27T03:59:45.619Z,7.45
2017-12-27T04:02:13.107Z,8.32
2017-12-27T04:04:40.578Z,7.45
2017-12-27T04:07:08.033Z,7.65
2017-12-27T04:09:35.537Z,8.10
2017-12-27T04:12:02.988Z,8.07
2017-12-27T04:14:30.455Z,7.72
2017-12-27T04:16:57.927Z,7.10
2017-12-27T04:19:25.388Z,6.80
2017-12-27T04:21:52.863Z,6.00
2017-12-27T04:24:20.293Z,5.62
2017-12-27T04:26:47.771Z,5.55
2017-12-27T04:29:15.234Z,6.05
2017-12-27T04:31:42.697Z,6.22
2017-12-27T04:34:10.152Z,7.10
2017-12-27T04:36:37.619Z,7.72
2017-12-27T04:39:05.088Z,9.15
2017-12-27T04:41:32.567Z,8.25
2017-12-27T04:44:00.040Z,8.13
2017-12-27T04:46:27.540Z,6.75
2017-12-27T04:48:55.015Z,7.75
2017-12-27T04:51:22.455Z,6.32
2017-12-27T04:53:50.168Z,5.85
2017-12-27T04:56:17.740Z,6.03
2017-12-27T04:58:45.259Z,5.93
2017-12-27T05:01:12.763Z,6.65
2017-12-27T05:03:40.227Z,6.32
2017-12-27T05:06:07.694Z,5.80
2017-12-27T05:08:35.157Z,6.03
2017-12-27T05:11:02.622Z,5.43
2017-12-27T05:13:30.072Z,5.62
2017-12-27T05:15:57.556Z,5.05
2017-12-27T05:18:25.019Z,5.07
2017-12-27T05:20:52.468Z,5.87
2017-12-27T05:23:19.951Z,5.43
2017-12-27T05:25:47.413Z,6.12
2017-12-27T05:28:14.859Z,5.93
2017-12-27T05:30:42.339Z,5.65
2017-12-27T05:33:09.812Z,5.90
2017-12-27T05:35:37.260Z,6.72
2017-12-27T05:38:04.724Z,6.18
2017-12-27T05:40:32.172Z,5.20
2017-12-27T05:42:59.642Z,5.32
2017-12-27T05:45:27.104Z,6.30
2017-12-27T05:47:54.556Z,6.30
2017-12-27T05:50:22.008Z,6.43
2017-12-27T05:52:49.494Z,5.50
2017-12-27T05:55:16.963Z,6.47
2017-12-27T05:57:44.411Z,6.87
2017-12-27T06:00:11.883Z,5.50
2017-12-27T06:02:39.350Z,5.70
2017-12-27T06:05:06.803Z,5.97
2017-12-27T06:07:34.286Z,6.12
2017-12-27T06:10:01.754Z,5.72
2017-12-27T06:12:29.224Z,5.47
2017-12-27T06:14:56.703Z,6.20
2017-12-27T06:17:24.147Z,6.10
2017-12-27T06:19:51.606Z,5.55
2017-12-27T06:22:19.095Z,5.47
2017-12-27T06:24:46.563Z,5.55
2017-12-27T06:27:14.013Z,5.60
2017-12-27T06:29:41.499Z,5.85
2017-12-27T06:32:08.959Z,6.15
2017-12-27T06:34:36.436Z,5.90
2017-12-27T06:37:03.900Z,5.97
2017-12-27T06:39:31.366Z,5.10
2017-12-27T06:41:58.830Z,5.32
2017-12-27T06:44:26.300Z,5.53
2017-12-27T06:46:53.764Z,5.00
2017-12-27T06:49:21.223Z,5.12
2017-12-27T06:51:48.684Z,5.62
2017-12-27T06:54:16.146Z,5.53
2017-12-27T06:56:43.608Z,5.87
2017-12-27T06:59:11.091Z,4.40
2017-12-27T07:01:38.558Z,6.75
2017-12-27T07:04:06.009Z,5.53
2017-12-27T07:06:33.476Z,5.32
2017-12-27T07:09:00.927Z,5.57
2017-12-27T07:11:28.373Z,5.20
2017-12-27T07:13:55.840Z,4.60
2017-12-27T07:16:23.303Z,5.15
2017-12-27T07:18:50.796Z,5.18
2017-12-27T07:21:18.307Z,5.25
2017-12-27T07:23:45.783Z,5.25
2017-12-27T07:26:13.274Z,6.12
2017-12-27T07:28:40.724Z,7.10
2017-12-27T07:31:08.203Z,5.93
2017-12-27T07:33:35.688Z,6.00
2017-12-27T07:36:03.141Z,5.40
2017-12-27T07:38:30.588Z,5.28
2017-12-27T07:40:58.075Z,6.12
2017-12-27T07:43:25.543Z,6.47
2017-12-27T07:45:53.011Z,7.22
2017-12-27T07:48:20.485Z,6.62
2017-12-27T07:50:47.967Z,7.40
2017-12-27T07:53:15.420Z,6.55
2017-12-27T07:55:42.906Z,7.68
2017-12-27T07:58:10.360Z,8.45
2017-12-27T08:00:37.816Z,7.50
2017-12-27T08:03:05.285Z,7.95
2017-12-27T08:05:32.755Z,6.70
2017-12-27T08:08:00.203Z,8.25
2017-12-27T08:10:27.691Z,8.20
2017-12-27T08:12:55.153Z,6.65
2017-12-27T08:15:22.666Z,7.62
2017-12-27T08:17:50.199Z,7.75
2017-12-27T08:20:17.751Z,7.47
2017-12-27T08:22:45.437Z,8.15
2017-12-27T08:25:13.063Z,7.45
2017-12-27T08:27:40.569Z,7.35
2017-12-27T08:30:08.177Z,8.05
2017-12-27T08:32:35.668Z,7.62
2017-12-27T08:35:03.139Z,7.78
2017-12-27T08:37:30.591Z,7.70
2017-12-27T08:39:58.087Z,6.82
2017-12-27T08:42:25.563Z,8.55
2017-12-27T08:44:53.042Z,8.50
2017-12-27T08:47:20.535Z,7.60
2017-12-27T08:49:47.994Z,7.68
2017-12-27T08:52:15.464Z,8.68
2017-12-27T08:54:42.933Z,8.25
2017-12-27T08:57:10.409Z,7.87
2017-12-27T08:59:37.912Z,7.80
2017-12-27T09:02:05.398Z,8.05
2017-12-27T09:04:32.892Z,7.05
2017-12-27T09:07:00.381Z,8.50
2017-12-27T09:09:27.850Z,8.90
2017-12-27T09:11:55.339Z,8.57
2017-12-27T09:14:22.806Z,7.78
2017-12-27T09:16:50.294Z,8.48
2017-12-27T09:19:17.788Z,9.02
2017-12-27T09:21:45.248Z,8.15
2017-12-27T09:24:12.708Z,8.95
2017-12-27T09:26:40.184Z,8.20
2017-12-27T09:29:07.644Z,8.10
2017-12-27T09:31:35.100Z,9.43
2017-12-27T09:34:02.593Z,9.00
2017-12-27T09:36:30.047Z,9.25
2017-12-27T09:38:57.500Z,8.70
2017-12-27T09:41:24.968Z,8.27
2017-12-27T09:43:52.439Z,7.18
2017-12-27T09:46:19.915Z,7.30
2017-12-27T09:48:47.403Z,6.40
2017-12-27T09:51:14.880Z,6.28
2017-12-27T09:53:42.333Z,6.12
2017-12-27T09:56:09.796Z,6.62
2017-12-27T09:58:37.279Z,5.65
2017-12-27T10:01:04.732Z,7.18
2017-12-27T10:03:32.211Z,7.28
2017-12-27T10:05:59.686Z,7.90
2017-12-27T10:08:27.139Z,7.10
2017-12-27T10:10:54.617Z,10.00
2017-12-27T10:13:22.106Z,9.80
2017-12-27T10:15:49.572Z,9.85
2017-12-27T10:18:17.054Z,9.85
2017-12-27T10:20:44.519Z,10.98
2017-12-27T10:23:11.997Z,12.35
2017-12-27T10:25:39.452Z,11.50
2017-12-27T10:28:06.952Z,11.10
2017-12-27T10:30:34.435Z,11.27
2017-12-27T10:33:01.911Z,12.48
2017-12-27T10:35:29.375Z,12.90
2017-12-27T10:37:56.854Z,14.40
2017-12-27T10:40:24.307Z,15.52
2017-12-27T10:42:51.777Z,16.65
2017-12-27T10:45:19.259Z,15.50
2017-12-27T10:47:46.729Z,16.65
2017-12-27T10:50:14.214Z,14.95
2017-12-27T10:52:41.682Z,13.55
2017-12-27T10:55:09.166Z,12.60
2017-12-27T10:57:36.659Z,11.55
2017-12-27T11:00:04.125Z,11.57
2017-12-27T11:02:31.602Z,11.73
2017-12-27T11:04:59.065Z,11.00
2017-12-27T11:07:26.542Z,10.68
2017-12-27T11:09:54.035Z,11.15
2017-12-27T11:12:21.502Z,11.57
2017-12-27T11:14:48.967Z,11.68
2017-12-27T11:17:16.450Z,11.82
2017-12-27T11:19:43.913Z,11.82
2017-12-27T11:22:11.416Z,11.55
2017-12-27T11:24:38.901Z,12.37
2017-12-27T11:27:06.366Z,11.70
2017-12-27T11:29:33.862Z,11.55
2017-12-27T11:32:01.354Z,11.40
2017-12-27T11:34:28.834Z,11.02
2017-12-27T11:36:56.305Z,11.30
2017-12-27T11:39:23.759Z,10.90
2017-12-27T11:41:51.239Z,10.55
2017-12-27T11:44:18.692Z,9.80
2017-12-27T11:46:46.162Z,9.47
2017-12-27T11:49:13.626Z,8.83
2017-12-27T11:51:41.092Z,7.90
2017-12-27T11:54:08.559Z,8.03
2017-12-27T11:56:36.035Z,7.83
2017-12-27T11:59:03.497Z,7.50
2017-12-27T12:01:30.934Z,7.20
2017-12-27T12:03:58.377Z,7.60
2017-12-27T12:06:25.855Z,6.40
2017-12-27T12:08:53.328Z,7.23
2017-12-27T12:11:20.826Z,7.50
2017-12-27T12:13:48.309Z,6.83
2017-12-27T12:16:15.775Z,7.07
2017-12-27T12:18:43.220Z,7.00
2017-12-27T12:21:10.698Z,8.00
2017-12-27T12:23:38.144Z,8.80
2017-12-27T12:26:05.593Z,8.60
2017-12-27T12:28:33.053Z,8.63
2017-12-27T12:31:00.505Z,9.27
2017-12-27T12:33:27.982Z,10.10
2017-12-27T12:35:55.460Z,8.80
2017-12-27T12:38:22.933Z,9.20
2017-12-27T12:40:50.407Z,9.37
2017-12-27T12:43:17.883Z,8.40
2017-12-27T12:45:45.351Z,8.73
2017-12-27T12:48:12.809Z,9.43
2017-12-27T12:50:40.268Z,9.30
2017-12-27T12:53:07.727Z,7.90
2017-12-27T12:55:35.189Z,9.00
2017-12-27T12:58:02.661Z,9.13
2017-12-27T13:00:30.132Z,9.87
2017-12-27T13:02:57.606Z,9.20
2017-12-27T13:05:25.082Z,9.73
2017-12-27T13:07:52.564Z,9.38
2017-12-27T13:10:21.370Z,9.23
2017-12-27T13:12:48.955Z,9.00
2017-12-27T13:15:16.446Z,8.60
2017-12-27T13:17:43.912Z,9.13
2017-12-27T13:20:11.357Z,9.43
2017-12-27T13:22:38.824Z,9.60
2017-12-27T13:25:06.295Z,9.50
2017-12-27T13:27:33.765Z,7.37
2017-12-27T13:30:01.242Z,7.12
2017-12-27T13:32:28.718Z,6.80
2017-12-27T13:34:56.164Z,7.60
2017-12-27T13:37:23.643Z,7.83
2017-12-27T13:39:51.110Z,7.40
2017-12-27T13:42:18.560Z,7.20
2017-12-27T13:44:46.022Z,7.53
2017-12-27T13:47:13.480Z,7.07
2017-12-27T13:49:40.941Z,7.10
2017-12-27T13:52:08.393Z,7.40
2017-12-27T13:54:35.855Z,8.17
2017-12-27T13:57:03.304Z,7.80
2017-12-27T13:59:30.760Z,8.03
2017-12-27T14:01:58.232Z,8.40
2017-12-27T14:04:25.688Z,7.82
2017-12-27T14:06:53.156Z,9.38
2017-12-27T14:09:20.615Z,8.52
2017-12-27T14:11:48.056Z,8.63
2017-12-27T14:14:15.543Z,8.45
2017-12-27T14:16:43.004Z,8.20
2017-12-27T14:19:10.481Z,8.43
2017-12-27T14:21:37.972Z,8.70
2017-12-27T14:24:05.463Z,8.05
2017-12-27T14:26:32.942Z,8.20
2017-12-27T14:29:00.419Z,8.40
2017-12-27T14:31:27.871Z,8.00
2017-12-27T14:33:55.335Z,7.50
2017-12-27T14:36:22.811Z,8.63
2017-12-27T14:38:50.270Z,7.93
2017-12-27T14:41:17.743Z,7.10
2017-12-27T14:43:45.227Z,8.50
2017-12-27T14:46:12.679Z,7.83
2017-12-27T14:48:40.120Z,7.00
2017-12-27T14:51:07.597Z,7.12
2017-12-27T14:53:35.064Z,7.60
2017-12-27T14:56:02.542Z,7.45
2017-12-27T14:58:30.008Z,8.93
2017-12-27T15:00:57.487Z,7.67
2017-12-27T15:03:24.956Z,7.63
2017-12-27T15:05:52.439Z,6.80
2017-12-27T15:08:19.896Z,8.30
2017-12-27T15:10:47.350Z,7.93
2017-12-27T15:13:14.804Z,7.30
2017-12-27T15:15:42.274Z,7.35
2017-12-27T15:18:09.716Z,7.77
2017-12-27T15:20:37.179Z,7.90
2017-12-27T15:23:04.636Z,16.83
2017-12-27T15:25:32.110Z,12.05
2017-12-27T15:27:59.587Z,11.50
2017-12-27T15:30:27.053Z,12.02
2017-12-27T15:32:54.530Z,13.07
2017-12-27T15:35:22.008Z,12.20
2017-12-27T15:37:49.494Z,13.00
2017-12-27T15:40:16.970Z,13.38
2017-12-27T15:42:44.463Z,12.90
2017-12-27T15:45:11.924Z,12.37
2017-12-27T15:47:39.423Z,11.73
2017-12-27T15:50:06.904Z,12.93
2017-12-27T15:52:34.389Z,13.57
2017-12-27T15:55:01.865Z,12.57
2017-12-27T15:57:29.364Z,11.68
2017-12-27T15:59:56.824Z,13.40
2017-12-27T16:02:24.304Z,12.40
2017-12-27T16:04:51.836Z,14.40
2017-12-27T16:07:19.296Z,12.93
2017-12-27T16:09:46.820Z,13.43
2017-12-27T16:12:14.311Z,14.00
2017-12-27T16:14:41.781Z,12.60
2017-12-27T16:17:09.267Z,13.70
2017-12-27T16:19:36.739Z,12.65
2017-12-27T16:22:04.204Z,11.38
2017-12-27T16:24:31.697Z,11.90
2017-12-27T16:26:59.179Z,11.20
2017-12-27T16:29:26.656Z,12.52
2017-12-27T16:31:54.155Z,12.40
2017-12-27T16:34:21.625Z,12.48
2017-12-27T16:36:49.119Z,12.68
2017-12-27T16:39:17.129Z,12.65
2017-12-27T16:41:44.592Z,13.80
2017-12-27T16:44:12.069Z,13.27
2017-12-27T16:46:39.532Z,13.60
2017-12-27T16:49:07.014Z,13.15
2017-12-27T16:51:34.502Z,13.23
2017-12-27T16:54:01.956Z,12.95
2017-12-27T16:56:29.436Z,11.57
2017-12-27T16:58:56.911Z,12.98
2017-12-27T17:01:24.390Z,12.57
2017-12-27T17:03:51.878Z,14.10
2017-12-27T17:06:19.362Z,13.35
2017-12-27T17:08:46.842Z,15.80
2017-12-27T17:11:14.324Z,14.00
2017-12-27T17:13:41.788Z,14.70
2017-12-27T17:16:09.266Z,15.65
2017-12-27T17:18:36.735Z,15.75
2017-12-27T17:21:04.215Z,14.45
2017-12-27T17:23:31.667Z,14.50
2017-12-27T17:25:59.246Z,12.83
2017-12-27T17:28:26.722Z,14.52
2017-12-27T17:30:54.184Z,14.27
2017-12-27T17:33:21.664Z,14.30
2017-12-27T17:35:49.145Z,12.88
2017-12-27T17:38:16.616Z,13.52
2017-12-27T17:40:44.076Z,13.50
2017-12-27T17:43:11.551Z,13.13
2017-12-27T17:45:39.019Z,13.10
2017-12-27T17:48:06.488Z,13.20
2017-12-27T17:50:33.961Z,12.93
2017-12-27T17:53:01.437Z,12.75
2017-12-27T17:55:28.902Z,12.25
2017-12-27T17:57:56.378Z,11.65
2017-12-27T18:00:23.866Z,13.70
2017-12-27T18:02:51.324Z,12.82
2017-12-27T18:05:18.780Z,13.32
2017-12-27T18:07:46.280Z,14.15
2017-12-27T18:10:13.701Z,16.05
2017-12-27T18:12:41.198Z,13.43
2017-12-27T18:15:08.675Z,13.57
2017-12-27T18:17:36.146Z,13.65
2017-12-27T18:20:04.736Z,12.13
2017-12-27T18:22:32.214Z,12.67
2017-12-27T18:24:59.687Z,13.30
2017-12-27T18:27:27.283Z,12.13
2017-12-27T18:29:54.761Z,11.43
2017-12-27T18:32:22.237Z,12.30
2017-12-27T18:34:49.695Z,9.90
2017-12-27T18:37:17.189Z,10.02
2017-12-27T18:39:44.649Z,10.30
2017-12-27T18:42:12.110Z,9.95
2017-12-27T18:44:39.603Z,10.07
2017-12-27T18:47:07.102Z,10.52
2017-12-27T18:49:34.584Z,10.25
2017-12-27T18:52:02.069Z,10.10
2017-12-27T18:54:29.528Z,10.70
2017-12-27T18:56:57.015Z,9.32
2017-12-27T18:59:24.512Z,9.80
2017-12-27T19:01:51.972Z,9.90
2017-12-27T19:04:19.432Z,10.85
2017-12-27T19:06:46.904Z,10.23
2017-12-27T19:09:14.387Z,10.80
2017-12-27T19:11:41.896Z,9.90
2017-12-27T19:14:09.387Z,10.95
2017-12-27T19:16:36.867Z,10.50
2017-12-27T19:19:04.343Z,10.55
2017-12-27T19:21:31.835Z,9.70
2017-12-27T19:23:59.330Z,8.95
2017-12-27T19:26:26.793Z,9.75
2017-12-27T19:28:54.291Z,10.40
2017-12-27T19:31:21.766Z,9.90
2017-12-27T19:33:49.225Z,10.23
2017-12-27T19:36:16.705Z,9.48
2017-12-27T19:38:44.196Z,11.65
2017-12-27T19:41:11.640Z,9.80
2017-12-27T19:43:39.116Z,10.30
2017-12-27T19:46:06.619Z,9.77
2017-12-27T19:48:34.064Z,9.17
2017-12-27T19:51:01.533Z,8.77
2017-12-27T19:53:32.909Z,10.18
2017-12-27T19:56:00.385Z,8.27
2017-12-27T19:58:27.890Z,9.63
2017-12-27T20:00:55.340Z,8.40
2017-12-27T20:03:22.815Z,10.35
2017-12-27T20:05:50.300Z,8.80
2017-12-27T20:08:17.907Z,8.85
2017-12-27T20:10:45.394Z,9.68
2017-12-27T20:13:12.878Z,9.23
2017-12-27T20:15:40.340Z,8.77
2017-12-27T20:18:07.853Z,10.20
2017-12-27T20:20:35.331Z,9.75
2017-12-27T20:23:02.796Z,9.82
2017-12-27T20:25:30.284Z,8.75
2017-12-27T20:27:57.825Z,10.30
2017-12-27T20:30:25.295Z,9.82
2017-12-27T20:32:52.790Z,10.45
2017-12-27T20:35:20.267Z,10.80
2017-12-27T20:37:47.732Z,11.15
2017-12-27T20:40:15.217Z,10.88
2017-12-27T20:42:42.719Z,11.00
2017-12-27T20:45:10.185Z,11.35
2017-12-27T20:47:37.704Z,10.02
2017-12-27T20:50:05.163Z,10.30
2017-12-27T20:52:32.619Z,11.20
2017-12-27T20:55:00.093Z,9.82
2017-12-27T20:57:27.578Z,11.48
2017-12-27T20:59:55.059Z,11.00
2017-12-27T21:02:22.555Z,10.27
2017-12-27T21:04:50.046Z,10.50
2017-12-27T21:07:17.530Z,11.23
2017-12-27T21:09:45.010Z,10.35
2017-12-27T21:12:12.562Z,12.27
2017-12-27T21:14:40.193Z,11.35
2017-12-27T21:17:07.744Z,13.48
2017-12-27T21:19:35.251Z,11.40
2017-12-27T21:22:02.726Z,13.60
2017-12-27T21:24:30.192Z,12.10
2017-12-27T21:26:57.648Z,10.93
2017-12-27T21:29:25.109Z,8.18
2017-12-27T21:31:52.588Z,6.70
2017-12-27T21:34:20.041Z,6.32
2017-12-27T21:36:47.518Z,5.87
2017-12-27T21:39:15.009Z,6.75
2017-12-27T21:41:42.485Z,6.43
2017-12-27T21:44:09.959Z,6.57
2017-12-27T21:46:37.443Z,6.85
2017-12-27T21:49:10.511Z,6.50
2017-12-27T21:51:37.989Z,7.20
2017-12-27T21:54:05.458Z,7.20
2017-12-27T21:56:32.908Z,7.60
2017-12-27T21:59:05.879Z,7.50
2017-12-27T22:01:44.923Z,6.47
2017-12-27T22:04:12.404Z,7.90
2017-12-27T22:06:39.870Z,6.82
2017-12-27T22:09:07.337Z,6.80
2017-12-27T22:11:34.801Z,6.32
2017-12-27T22:14:02.278Z,4.15
2017-12-27T22:16:29.769Z,4.20
2017-12-27T22:18:57.218Z,6.40
2017-12-27T22:21:24.664Z,4.10
2017-12-27T22:23:52.142Z,3.90
2017-12-27T22:26:19.589Z,3.62
2017-12-27T22:28:47.059Z,4.07
2017-12-27T22:31:14.524Z,3.85
2017-12-27T22:33:41.972Z,4.10
2017-12-27T22:36:09.442Z,4.90
2017-12-27T22:38:37.075Z,3.85
2017-12-27T22:41:04.622Z,3.20
2017-12-27T22:43:32.153Z,4.10
2017-12-27T22:45:59.702Z,3.92
2017-12-27T22:48:27.325Z,3.67
2017-12-27T22:50:54.891Z,3.45
2017-12-27T22:53:22.378Z,4.15
2017-12-27T22:55:49.819Z,3.90
2017-12-27T22:58:17.263Z,3.90
2017-12-27T23:00:44.742Z,3.90
2017-12-27T23:03:12.192Z,3.20
2017-12-27T23:05:39.651Z,3.97
2017-12-27T23:08:07.143Z,3.47
2017-12-27T23:10:34.591Z,3.97
2017-12-27T23:13:02.067Z,3.78
2017-12-27T23:15:29.542Z,3.70
2017-12-27T23:17:56.993Z,3.40
2017-12-27T23:20:24.459Z,3.45
2017-12-27T23:22:51.922Z,4.05
2017-12-27T23:25:19.390Z,4.10
2017-12-27T23:27:47.035Z,3.90
2017-12-27T23:30:14.505Z,4.15
2017-12-27T23:32:41.969Z,3.62
2017-12-27T23:35:09.456Z,3.80
2017-12-27T23:37:36.936Z,4.10
2017-12-27T23:40:04.407Z,3.87
2017-12-27T23:42:31.877Z,3.92
2017-12-27T23:44:59.348Z,4.55
2017-12-27T23:47:26.826Z,3.70
2017-12-27T23:49:54.300Z,4.07
2017-12-27T23:52:21.770Z,4.12
2017-12-27T23:54:49.238Z,3.80
2017-12-27T23:57:16.696Z,4.75
2017-12-27T23:59:44.156Z,3.65
